sensor_id;sensor_type;location;lat;lon;timestamp;P1;durP1;ratioP1;P2;durP2;ratioP2
51852;SDS011;37894;53.172;6.598;2024-01-07T00:00:12;17.15;;;8.98;;
51852;SDS011;37894;53.172;6.598;2024-01-07T00:02:38;16.52;;;10.15;;
51852;SDS011;37894;53.172;6.598;2024-01-07T00:05:04;16.52;;;8.52;;
51852;SDS011;37894;53.172;6.598;2024-01-07T00:07:30;14.40;;;8.13;;
51852;SDS011;37894;53.172;6.598;2024-01-07T00:09:56;14.63;;;7.85;;
51852;SDS011;37894;53.172;6.598;2024-01-07T00:12:22;15.35;;;7.95;;
51852;SDS011;37894;53.172;6.598;2024-01-07T00:14:49;11.60;;;7.13;;
51852;SDS011;37894;53.172;6.598;2024-01-07T00:17:15;14.85;;;7.57;;
51852;SDS011;37894;53.172;6.598;2024-01-07T00:19:41;15.80;;;7.85;;
51852;SDS011;37894;53.172;6.598;2024-01-07T00:22:06;11.95;;;7.88;;
51852;SDS011;37894;53.172;6.598;2024-01-07T00:24:32;12.13;;;7.20;;
51852;SDS011;37894;53.172;6.598;2024-01-07T00:26:58;14.07;;;8.13;;
51852;SDS011;37894;53.172;6.598;2024-01-07T00:29:24;11.25;;;6.57;;
51852;SDS011;37894;53.172;6.598;2024-01-07T00:31:50;10.63;;;6.60;;
51852;SDS011;37894;53.172;6.598;2024-01-07T00:34:15;11.27;;;5.55;;
51852;SDS011;37894;53.172;6.598;2024-01-07T00:36:41;10.95;;;5.82;;
51852;SDS011;37894;53.172;6.598;2024-01-07T00:39:07;11.55;;;6.45;;
51852;SDS011;37894;53.172;6.598;2024-01-07T00:41:32;8.05;;;5.53;;
51852;SDS011;37894;53.172;6.598;2024-01-07T00:43:58;11.02;;;6.47;;
51852;SDS011;37894;53.172;6.598;2024-01-07T00:46:24;14.73;;;7.32;;
51852;SDS011;37894;53.172;6.598;2024-01-07T00:48:49;11.77;;;6.78;;
51852;SDS011;37894;53.172;6.598;2024-01-07T00:51:15;10.73;;;6.47;;
51852;SDS011;37894;53.172;6.598;2024-01-07T00:53:40;10.57;;;5.68;;
51852;SDS011;37894;53.172;6.598;2024-01-07T00:56:06;12.68;;;5.78;;
51852;SDS011;37894;53.172;6.598;2024-01-07T00:58:32;12.05;;;7.60;;
51852;SDS011;37894;53.172;6.598;2024-01-07T01:00:58;9.55;;;6.13;;
51852;SDS011;37894;53.172;6.598;2024-01-07T01:03:25;11.77;;;6.72;;
51852;SDS011;37894;53.172;6.598;2024-01-07T01:05:51;13.32;;;7.07;;
51852;SDS011;37894;53.172;6.598;2024-01-07T01:08:18;13.75;;;6.93;;
51852;SDS011;37894;53.172;6.598;2024-01-07T01:10:44;10.90;;;6.80;;
51852;SDS011;37894;53.172;6.598;2024-01-07T01:13:09;13.55;;;6.68;;
51852;SDS011;37894;53.172;6.598;2024-01-07T01:15:35;11.27;;;6.60;;
51852;SDS011;37894;53.172;6.598;2024-01-07T01:18:01;13.48;;;7.00;;
51852;SDS011;37894;53.172;6.598;2024-01-07T01:20:26;12.27;;;6.38;;
51852;SDS011;37894;53.172;6.598;2024-01-07T01:22:53;12.05;;;6.50;;
51852;SDS011;37894;53.172;6.598;2024-01-07T01:25:19;11.60;;;6.32;;
51852;SDS011;37894;53.172;6.598;2024-01-07T01:27:45;12.40;;;6.68;;
51852;SDS011;37894;53.172;6.598;2024-01-07T01:30:11;10.82;;;5.97;;
51852;SDS011;37894;53.172;6.598;2024-01-07T01:32:38;10.98;;;6.78;;
51852;SDS011;37894;53.172;6.598;2024-01-07T01:35:04;11.35;;;6.63;;
51852;SDS011;37894;53.172;6.598;2024-01-07T01:37:30;11.88;;;6.93;;
51852;SDS011;37894;53.172;6.598;2024-01-07T01:39:58;10.70;;;6.57;;
51852;SDS011;37894;53.172;6.598;2024-01-07T01:42:24;11.90;;;7.13;;
51852;SDS011;37894;53.172;6.598;2024-01-07T01:44:50;11.18;;;6.20;;
51852;SDS011;37894;53.172;6.598;2024-01-07T01:47:17;12.48;;;6.22;;
51852;SDS011;37894;53.172;6.598;2024-01-07T01:49:43;11.40;;;5.53;;
51852;SDS011;37894;53.172;6.598;2024-01-07T01:52:10;9.23;;;5.25;;
51852;SDS011;37894;53.172;6.598;2024-01-07T01:54:38;8.30;;;5.28;;
51852;SDS011;37894;53.172;6.598;2024-01-07T01:57:04;9.80;;;5.85;;
51852;SDS011;37894;53.172;6.598;2024-01-07T01:59:31;9.80;;;5.55;;
51852;SDS011;37894;53.172;6.598;2024-01-07T02:01:58;11.85;;;5.55;;
51852;SDS011;37894;53.172;6.598;2024-01-07T02:04:24;9.18;;;6.10;;
51852;SDS011;37894;53.172;6.598;2024-01-07T02:06:50;9.70;;;5.32;;
51852;SDS011;37894;53.172;6.598;2024-01-07T02:09:16;9.00;;;4.97;;
51852;SDS011;37894;53.172;6.598;2024-01-07T02:11:42;9.55;;;5.50;;
51852;SDS011;37894;53.172;6.598;2024-01-07T02:14:08;10.00;;;5.40;;
51852;SDS011;37894;53.172;6.598;2024-01-07T02:16:33;10.50;;;5.40;;
51852;SDS011;37894;53.172;6.598;2024-01-07T02:18:59;10.85;;;5.43;;
51852;SDS011;37894;53.172;6.598;2024-01-07T02:21:25;9.52;;;5.38;;
51852;SDS011;37894;53.172;6.598;2024-01-07T02:23:50;8.20;;;4.80;;
51852;SDS011;37894;53.172;6.598;2024-01-07T02:26:16;10.05;;;4.82;;
51852;SDS011;37894;53.172;6.598;2024-01-07T02:28:43;11.38;;;5.00;;
51852;SDS011;37894;53.172;6.598;2024-01-07T02:31:09;9.00;;;5.28;;
51852;SDS011;37894;53.172;6.598;2024-01-07T02:33:34;8.73;;;4.88;;
51852;SDS011;37894;53.172;6.598;2024-01-07T02:36:00;9.13;;;5.00;;
51852;SDS011;37894;53.172;6.598;2024-01-07T02:38:26;9.98;;;4.95;;
51852;SDS011;37894;53.172;6.598;2024-01-07T02:40:52;8.27;;;5.03;;
51852;SDS011;37894;53.172;6.598;2024-01-07T02:43:18;8.73;;;5.13;;
51852;SDS011;37894;53.172;6.598;2024-01-07T02:45:44;9.93;;;5.65;;
51852;SDS011;37894;53.172;6.598;2024-01-07T02:48:10;9.82;;;4.50;;
51852;SDS011;37894;53.172;6.598;2024-01-07T02:50:36;10.00;;;4.30;;
51852;SDS011;37894;53.172;6.598;2024-01-07T02:53:02;6.32;;;4.03;;
51852;SDS011;37894;53.172;6.598;2024-01-07T02:55:27;8.48;;;3.88;;
51852;SDS011;37894;53.172;6.598;2024-01-07T02:57:53;7.80;;;3.58;;
51852;SDS011;37894;53.172;6.598;2024-01-07T03:00:19;7.25;;;3.60;;
51852;SDS011;37894;53.172;6.598;2024-01-07T03:02:44;7.22;;;3.75;;
51852;SDS011;37894;53.172;6.598;2024-01-07T03:05:10;6.80;;;3.72;;
51852;SDS011;37894;53.172;6.598;2024-01-07T03:07:37;7.40;;;4.10;;
51852;SDS011;37894;53.172;6.598;2024-01-07T03:10:04;8.00;;;3.97;;
51852;SDS011;37894;53.172;6.598;2024-01-07T03:12:30;6.15;;;3.60;;
51852;SDS011;37894;53.172;6.598;2024-01-07T03:14:55;7.63;;;3.85;;
51852;SDS011;37894;53.172;6.598;2024-01-07T03:17:21;9.52;;;4.55;;
51852;SDS011;37894;53.172;6.598;2024-01-07T03:19:49;8.65;;;3.70;;
51852;SDS011;37894;53.172;6.598;2024-01-07T03:22:14;6.72;;;3.33;;
51852;SDS011;37894;53.172;6.598;2024-01-07T03:24:41;7.22;;;3.22;;
51852;SDS011;37894;53.172;6.598;2024-01-07T03:27:07;7.78;;;4.22;;
51852;SDS011;37894;53.172;6.598;2024-01-07T03:29:33;8.45;;;4.18;;
51852;SDS011;37894;53.172;6.598;2024-01-07T03:31:58;6.82;;;4.00;;
51852;SDS011;37894;53.172;6.598;2024-01-07T03:34:24;7.38;;;3.85;;
51852;SDS011;37894;53.172;6.598;2024-01-07T03:36:50;7.20;;;3.58;;
51852;SDS011;37894;53.172;6.598;2024-01-07T03:39:16;7.05;;;3.85;;
51852;SDS011;37894;53.172;6.598;2024-01-07T03:41:42;5.15;;;3.20;;
51852;SDS011;37894;53.172;6.598;2024-01-07T03:44:08;7.15;;;3.50;;
51852;SDS011;37894;53.172;6.598;2024-01-07T03:46:33;10.10;;;3.97;;
51852;SDS011;37894;53.172;6.598;2024-01-07T03:48:59;8.60;;;3.65;;
51852;SDS011;37894;53.172;6.598;2024-01-07T03:51:25;6.93;;;3.17;;
51852;SDS011;37894;53.172;6.598;2024-01-07T03:53:51;4.93;;;3.20;;
51852;SDS011;37894;53.172;6.598;2024-01-07T03:56:17;7.75;;;3.53;;
51852;SDS011;37894;53.172;6.598;2024-01-07T03:58:43;5.65;;;3.08;;
51852;SDS011;37894;53.172;6.598;2024-01-07T04:01:08;6.22;;;3.33;;
51852;SDS011;37894;53.172;6.598;2024-01-07T04:03:34;5.30;;;2.90;;
51852;SDS011;37894;53.172;6.598;2024-01-07T04:05:59;5.25;;;3.38;;
51852;SDS011;37894;53.172;6.598;2024-01-07T04:08:26;7.32;;;3.40;;
51852;SDS011;37894;53.172;6.598;2024-01-07T04:10:51;6.05;;;2.65;;
51852;SDS011;37894;53.172;6.598;2024-01-07T04:13:18;6.65;;;3.13;;
51852;SDS011;37894;53.172;6.598;2024-01-07T04:15:44;8.80;;;3.28;;
51852;SDS011;37894;53.172;6.598;2024-01-07T04:18:09;6.72;;;3.55;;
51852;SDS011;37894;53.172;6.598;2024-01-07T04:20:35;5.78;;;3.28;;
51852;SDS011;37894;53.172;6.598;2024-01-07T04:23:01;4.47;;;2.83;;
51852;SDS011;37894;53.172;6.598;2024-01-07T04:25:28;4.70;;;2.72;;
51852;SDS011;37894;53.172;6.598;2024-01-07T04:27:54;4.88;;;2.60;;
51852;SDS011;37894;53.172;6.598;2024-01-07T04:30:19;5.38;;;2.70;;
51852;SDS011;37894;53.172;6.598;2024-01-07T04:32:45;7.88;;;2.58;;
51852;SDS011;37894;53.172;6.598;2024-01-07T04:35:11;5.57;;;2.90;;
51852;SDS011;37894;53.172;6.598;2024-01-07T04:37:37;4.75;;;2.72;;
51852;SDS011;37894;53.172;6.598;2024-01-07T04:40:03;5.05;;;2.70;;
51852;SDS011;37894;53.172;6.598;2024-01-07T04:42:29;4.63;;;2.60;;
51852;SDS011;37894;53.172;6.598;2024-01-07T04:44:55;5.95;;;2.60;;
51852;SDS011;37894;53.172;6.598;2024-01-07T04:47:28;4.53;;;2.47;;
51852;SDS011;37894;53.172;6.598;2024-01-07T04:49:59;6.15;;;2.47;;
51852;SDS011;37894;53.172;6.598;2024-01-07T04:52:25;4.07;;;2.22;;
51852;SDS011;37894;53.172;6.598;2024-01-07T04:58:32;5.85;;;2.38;;
51852;SDS011;37894;53.172;6.598;2024-01-07T05:00:58;4.55;;;2.13;;
51852;SDS011;37894;53.172;6.598;2024-01-07T05:03:24;5.68;;;2.25;;
51852;SDS011;37894;53.172;6.598;2024-01-07T05:05:50;5.65;;;2.22;;
51852;SDS011;37894;53.172;6.598;2024-01-07T05:08:16;5.00;;;2.85;;
51852;SDS011;37894;53.172;6.598;2024-01-07T05:10:42;3.95;;;2.08;;
51852;SDS011;37894;53.172;6.598;2024-01-07T05:13:08;4.40;;;1.95;;
51852;SDS011;37894;53.172;6.598;2024-01-07T05:15:33;4.00;;;2.45;;
51852;SDS011;37894;53.172;6.598;2024-01-07T05:17:59;5.65;;;2.35;;
51852;SDS011;37894;53.172;6.598;2024-01-07T05:20:25;5.55;;;2.38;;
51852;SDS011;37894;53.172;6.598;2024-01-07T05:22:51;5.93;;;2.22;;
51852;SDS011;37894;53.172;6.598;2024-01-07T05:25:16;3.35;;;1.70;;
51852;SDS011;37894;53.172;6.598;2024-01-07T05:27:42;5.13;;;2.05;;
51852;SDS011;37894;53.172;6.598;2024-01-07T05:30:08;5.47;;;2.20;;
51852;SDS011;37894;53.172;6.598;2024-01-07T05:32:33;4.50;;;2.00;;
51852;SDS011;37894;53.172;6.598;2024-01-07T05:34:59;4.88;;;2.40;;
51852;SDS011;37894;53.172;6.598;2024-01-07T05:37:25;2.78;;;1.60;;
51852;SDS011;37894;53.172;6.598;2024-01-07T05:39:50;4.88;;;1.80;;
51852;SDS011;37894;53.172;6.598;2024-01-07T05:42:16;6.18;;;2.05;;
51852;SDS011;37894;53.172;6.598;2024-01-07T05:44:42;4.63;;;1.95;;
51852;SDS011;37894;53.172;6.598;2024-01-07T05:47:07;3.45;;;1.65;;
51852;SDS011;37894;53.172;6.598;2024-01-07T05:49:34;3.78;;;1.80;;
51852;SDS011;37894;53.172;6.598;2024-01-07T05:52:00;6.75;;;2.03;;
51852;SDS011;37894;53.172;6.598;2024-01-07T05:54:26;4.70;;;2.15;;
51852;SDS011;37894;53.172;6.598;2024-01-07T05:56:51;3.95;;;1.70;;
51852;SDS011;37894;53.172;6.598;2024-01-07T05:59:17;3.00;;;1.63;;
51852;SDS011;37894;53.172;6.598;2024-01-07T06:01:44;4.43;;;1.63;;
51852;SDS011;37894;53.172;6.598;2024-01-07T06:04:10;4.78;;;1.80;;
51852;SDS011;37894;53.172;6.598;2024-01-07T06:06:36;5.40;;;2.03;;
51852;SDS011;37894;53.172;6.598;2024-01-07T06:09:02;3.88;;;1.77;;
51852;SDS011;37894;53.172;6.598;2024-01-07T06:11:27;7.57;;;2.40;;
51852;SDS011;37894;53.172;6.598;2024-01-07T06:13:53;4.55;;;1.50;;
51852;SDS011;37894;53.172;6.598;2024-01-07T06:16:19;5.35;;;1.90;;
51852;SDS011;37894;53.172;6.598;2024-01-07T06:18:45;4.00;;;1.70;;
51852;SDS011;37894;53.172;6.598;2024-01-07T06:21:11;3.58;;;1.90;;
51852;SDS011;37894;53.172;6.598;2024-01-07T06:23:37;5.63;;;1.75;;
51852;SDS011;37894;53.172;6.598;2024-01-07T06:26:03;4.72;;;1.85;;
51852;SDS011;37894;53.172;6.598;2024-01-07T06:28:29;3.58;;;1.58;;
51852;SDS011;37894;53.172;6.598;2024-01-07T06:30:55;3.95;;;1.70;;
51852;SDS011;37894;53.172;6.598;2024-01-07T06:33:20;4.20;;;1.90;;
51852;SDS011;37894;53.172;6.598;2024-01-07T06:35:46;3.92;;;1.80;;
51852;SDS011;37894;53.172;6.598;2024-01-07T06:38:12;6.15;;;1.98;;
51852;SDS011;37894;53.172;6.598;2024-01-07T06:40:38;6.97;;;4.60;;
51852;SDS011;37894;53.172;6.598;2024-01-07T06:43:03;5.43;;;2.97;;
51852;SDS011;37894;53.172;6.598;2024-01-07T06:45:29;6.35;;;3.83;;
51852;SDS011;37894;53.172;6.598;2024-01-07T06:47:56;6.05;;;3.03;;
51852;SDS011;37894;53.172;6.598;2024-01-07T06:50:21;8.82;;;2.50;;
51852;SDS011;37894;53.172;6.598;2024-01-07T06:52:47;5.97;;;1.58;;
51852;SDS011;37894;53.172;6.598;2024-01-07T06:55:13;4.32;;;1.90;;
51852;SDS011;37894;53.172;6.598;2024-01-07T06:57:38;9.55;;;3.63;;
51852;SDS011;37894;53.172;6.598;2024-01-07T07:00:05;4.63;;;1.50;;
51852;SDS011;37894;53.172;6.598;2024-01-07T07:02:31;7.07;;;2.90;;
51852;SDS011;37894;53.172;6.598;2024-01-07T07:04:57;4.18;;;2.10;;
51852;SDS011;37894;53.172;6.598;2024-01-07T07:07:23;4.00;;;2.35;;
51852;SDS011;37894;53.172;6.598;2024-01-07T07:09:49;3.10;;;1.75;;
51852;SDS011;37894;53.172;6.598;2024-01-07T07:12:15;3.30;;;1.50;;
51852;SDS011;37894;53.172;6.598;2024-01-07T07:14:41;15.60;;;8.60;;
51852;SDS011;37894;53.172;6.598;2024-01-07T07:17:06;6.47;;;1.92;;
51852;SDS011;37894;53.172;6.598;2024-01-07T07:19:32;5.88;;;3.72;;
51852;SDS011;37894;53.172;6.598;2024-01-07T07:21:58;8.32;;;5.05;;
51852;SDS011;37894;53.172;6.598;2024-01-07T07:24:24;12.02;;;5.60;;
51852;SDS011;37894;53.172;6.598;2024-01-07T07:26:50;6.30;;;3.30;;
51852;SDS011;37894;53.172;6.598;2024-01-07T07:29:16;6.93;;;4.05;;
51852;SDS011;37894;53.172;6.598;2024-01-07T07:31:42;4.88;;;2.55;;
51852;SDS011;37894;53.172;6.598;2024-01-07T07:34:08;4.55;;;2.30;;
51852;SDS011;37894;53.172;6.598;2024-01-07T07:36:35;4.15;;;2.38;;
51852;SDS011;37894;53.172;6.598;2024-01-07T07:39:00;3.28;;;1.60;;
51852;SDS011;37894;53.172;6.598;2024-01-07T07:41:26;5.45;;;2.20;;
51852;SDS011;37894;53.172;6.598;2024-01-07T07:43:53;4.65;;;1.75;;
51852;SDS011;37894;53.172;6.598;2024-01-07T07:46:20;3.30;;;1.83;;
51852;SDS011;37894;53.172;6.598;2024-01-07T07:48:45;3.53;;;2.10;;
51852;SDS011;37894;53.172;6.598;2024-01-07T07:51:11;4.80;;;1.73;;
51852;SDS011;37894;53.172;6.598;2024-01-07T07:53:40;3.90;;;1.75;;
51852;SDS011;37894;53.172;6.598;2024-01-07T07:56:06;4.88;;;1.55;;
51852;SDS011;37894;53.172;6.598;2024-01-07T07:58:32;5.55;;;1.70;;
51852;SDS011;37894;53.172;6.598;2024-01-07T08:00:58;4.90;;;1.95;;
51852;SDS011;37894;53.172;6.598;2024-01-07T08:03:24;4.85;;;2.40;;
51852;SDS011;37894;53.172;6.598;2024-01-07T08:05:50;4.45;;;2.00;;
51852;SDS011;37894;53.172;6.598;2024-01-07T08:08:16;4.45;;;2.00;;
51852;SDS011;37894;53.172;6.598;2024-01-07T08:10:42;4.07;;;2.00;;
51852;SDS011;37894;53.172;6.598;2024-01-07T08:13:08;4.90;;;2.22;;
51852;SDS011;37894;53.172;6.598;2024-01-07T08:15:34;4.38;;;1.90;;
51852;SDS011;37894;53.172;6.598;2024-01-07T08:18:02;3.90;;;2.38;;
51852;SDS011;37894;53.172;6.598;2024-01-07T08:20:29;3.83;;;1.98;;
51852;SDS011;37894;53.172;6.598;2024-01-07T08:22:55;3.83;;;2.20;;
51852;SDS011;37894;53.172;6.598;2024-01-07T08:25:20;4.40;;;2.00;;
51852;SDS011;37894;53.172;6.598;2024-01-07T08:27:46;6.28;;;2.15;;
51852;SDS011;37894;53.172;6.598;2024-01-07T08:30:12;5.30;;;2.08;;
51852;SDS011;37894;53.172;6.598;2024-01-07T08:32:38;5.72;;;1.95;;
51852;SDS011;37894;53.172;6.598;2024-01-07T08:35:05;4.13;;;2.17;;
51852;SDS011;37894;53.172;6.598;2024-01-07T08:37:31;4.78;;;2.05;;
51852;SDS011;37894;53.172;6.598;2024-01-07T08:39:57;5.55;;;2.13;;
51852;SDS011;37894;53.172;6.598;2024-01-07T08:42:24;3.60;;;2.20;;
51852;SDS011;37894;53.172;6.598;2024-01-07T08:44:50;5.60;;;2.20;;
51852;SDS011;37894;53.172;6.598;2024-01-07T08:47:16;4.57;;;2.17;;
51852;SDS011;37894;53.172;6.598;2024-01-07T08:49:42;5.03;;;2.00;;
51852;SDS011;37894;53.172;6.598;2024-01-07T08:52:09;3.63;;;1.63;;
51852;SDS011;37894;53.172;6.598;2024-01-07T08:54:35;2.70;;;1.70;;
51852;SDS011;37894;53.172;6.598;2024-01-07T08:57:01;3.63;;;1.85;;
51852;SDS011;37894;53.172;6.598;2024-01-07T08:59:27;4.45;;;1.50;;
51852;SDS011;37894;53.172;6.598;2024-01-07T09:01:53;3.88;;;1.88;;
51852;SDS011;37894;53.172;6.598;2024-01-07T09:04:19;4.35;;;1.83;;
51852;SDS011;37894;53.172;6.598;2024-01-07T09:06:45;4.00;;;1.88;;
51852;SDS011;37894;53.172;6.598;2024-01-07T09:09:11;5.65;;;2.03;;
51852;SDS011;37894;53.172;6.598;2024-01-07T09:11:38;3.53;;;2.00;;
51852;SDS011;37894;53.172;6.598;2024-01-07T09:14:04;3.53;;;1.58;;
51852;SDS011;37894;53.172;6.598;2024-01-07T09:16:30;3.30;;;2.00;;
51852;SDS011;37894;53.172;6.598;2024-01-07T09:18:57;6.43;;;1.90;;
51852;SDS011;37894;53.172;6.598;2024-01-07T09:21:24;6.57;;;1.90;;
51852;SDS011;37894;53.172;6.598;2024-01-07T09:23:51;3.90;;;2.03;;
51852;SDS011;37894;53.172;6.598;2024-01-07T09:26:17;2.92;;;1.52;;
51852;SDS011;37894;53.172;6.598;2024-01-07T09:28:43;6.00;;;2.25;;
51852;SDS011;37894;53.172;6.598;2024-01-07T09:31:09;4.90;;;1.85;;
51852;SDS011;37894;53.172;6.598;2024-01-07T09:33:35;4.38;;;2.13;;
51852;SDS011;37894;53.172;6.598;2024-01-07T09:36:01;7.80;;;2.10;;
51852;SDS011;37894;53.172;6.598;2024-01-07T09:38:27;5.45;;;2.25;;
51852;SDS011;37894;53.172;6.598;2024-01-07T09:40:53;6.78;;;2.20;;
51852;SDS011;37894;53.172;6.598;2024-01-07T09:43:20;5.60;;;2.30;;
51852;SDS011;37894;53.172;6.598;2024-01-07T09:45:46;4.85;;;1.90;;
51852;SDS011;37894;53.172;6.598;2024-01-07T09:48:13;5.15;;;2.00;;
51852;SDS011;37894;53.172;6.598;2024-01-07T09:50:39;3.50;;;2.08;;
51852;SDS011;37894;53.172;6.598;2024-01-07T09:53:05;5.65;;;2.08;;
51852;SDS011;37894;53.172;6.598;2024-01-07T09:55:37;5.53;;;1.88;;
51852;SDS011;37894;53.172;6.598;2024-01-07T09:58:12;5.10;;;2.15;;
51852;SDS011;37894;53.172;6.598;2024-01-07T10:00:38;3.95;;;1.73;;
51852;SDS011;37894;53.172;6.598;2024-01-07T10:03:05;6.15;;;2.10;;
51852;SDS011;37894;53.172;6.598;2024-01-07T10:05:31;4.80;;;2.20;;
51852;SDS011;37894;53.172;6.598;2024-01-07T10:07:57;3.97;;;2.10;;
51852;SDS011;37894;53.172;6.598;2024-01-07T10:10:23;4.00;;;2.10;;
51852;SDS011;37894;53.172;6.598;2024-01-07T10:12:49;3.63;;;2.03;;
51852;SDS011;37894;53.172;6.598;2024-01-07T10:15:18;4.50;;;1.90;;
51852;SDS011;37894;53.172;6.598;2024-01-07T10:17:44;4.43;;;2.30;;
51852;SDS011;37894;53.172;6.598;2024-01-07T10:20:10;6.88;;;2.10;;
51852;SDS011;37894;53.172;6.598;2024-01-07T10:22:37;4.03;;;2.00;;
51852;SDS011;37894;53.172;6.598;2024-01-07T10:25:05;2.90;;;1.67;;
51852;SDS011;37894;53.172;6.598;2024-01-07T10:27:35;3.45;;;2.00;;
51852;SDS011;37894;53.172;6.598;2024-01-07T10:30:04;5.40;;;2.42;;
51852;SDS011;37894;53.172;6.598;2024-01-07T10:32:31;5.25;;;2.28;;
51852;SDS011;37894;53.172;6.598;2024-01-07T10:35:02;5.05;;;2.63;;
51852;SDS011;37894;53.172;6.598;2024-01-07T10:37:30;5.95;;;2.78;;
51852;SDS011;37894;53.172;6.598;2024-01-07T10:39:59;10.13;;;4.78;;
51852;SDS011;37894;53.172;6.598;2024-01-07T10:42:32;10.23;;;4.05;;
51852;SDS011;37894;53.172;6.598;2024-01-07T10:44:59;5.70;;;2.85;;
51852;SDS011;37894;53.172;6.598;2024-01-07T10:47:27;6.60;;;2.97;;
51852;SDS011;37894;53.172;6.598;2024-01-07T10:49:58;5.93;;;3.50;;
51852;SDS011;37894;53.172;6.598;2024-01-07T10:52:27;5.97;;;3.28;;
51852;SDS011;37894;53.172;6.598;2024-01-07T10:54:53;6.60;;;3.25;;
51852;SDS011;37894;53.172;6.598;2024-01-07T10:59:45;6.07;;;2.33;;
51852;SDS011;37894;53.172;6.598;2024-01-07T11:02:11;7.53;;;2.40;;
51852;SDS011;37894;53.172;6.598;2024-01-07T11:07:44;4.82;;;2.70;;
51852;SDS011;37894;53.172;6.598;2024-01-07T11:10:18;4.50;;;2.17;;
51852;SDS011;37894;53.172;6.598;2024-01-07T11:12:56;5.88;;;2.58;;
51852;SDS011;37894;53.172;6.598;2024-01-07T11:18:22;6.47;;;2.28;;
51852;SDS011;37894;53.172;6.598;2024-01-07T11:20:51;6.43;;;2.20;;
51852;SDS011;37894;53.172;6.598;2024-01-07T11:23:31;4.30;;;2.22;;
51852;SDS011;37894;53.172;6.598;2024-01-07T11:26:05;3.50;;;2.03;;
51852;SDS011;37894;53.172;6.598;2024-01-07T11:28:47;4.47;;;2.17;;
51852;SDS011;37894;53.172;6.598;2024-01-07T11:31:43;4.07;;;2.20;;
51852;SDS011;37894;53.172;6.598;2024-01-07T11:34:08;5.25;;;2.50;;
51852;SDS011;37894;53.172;6.598;2024-01-07T11:36:37;8.02;;;2.63;;
51852;SDS011;37894;53.172;6.598;2024-01-07T11:39:04;10.18;;;4.18;;
51852;SDS011;37894;53.172;6.598;2024-01-07T11:41:33;7.25;;;3.72;;
51852;SDS011;37894;53.172;6.598;2024-01-07T11:44:00;5.63;;;3.60;;
51852;SDS011;37894;53.172;6.598;2024-01-07T11:46:26;6.90;;;3.22;;
51852;SDS011;37894;53.172;6.598;2024-01-07T11:48:53;7.20;;;3.90;;
51852;SDS011;37894;53.172;6.598;2024-01-07T11:51:26;6.88;;;3.08;;
51852;SDS011;37894;53.172;6.598;2024-01-07T11:53:53;6.28;;;2.80;;
51852;SDS011;37894;53.172;6.598;2024-01-07T11:56:19;6.75;;;3.25;;
51852;SDS011;37894;53.172;6.598;2024-01-07T11:58:45;6.72;;;3.63;;
51852;SDS011;37894;53.172;6.598;2024-01-07T12:01:11;6.95;;;4.15;;
51852;SDS011;37894;53.172;6.598;2024-01-07T12:03:40;8.20;;;3.38;;
51852;SDS011;37894;53.172;6.598;2024-01-07T12:06:08;10.02;;;4.30;;
51852;SDS011;37894;53.172;6.598;2024-01-07T12:08:38;5.32;;;3.30;;
51852;SDS011;37894;53.172;6.598;2024-01-07T12:11:04;11.82;;;3.70;;
51852;SDS011;37894;53.172;6.598;2024-01-07T12:13:30;9.05;;;3.42;;
51852;SDS011;37894;53.172;6.598;2024-01-07T12:15:56;6.68;;;4.05;;
51852;SDS011;37894;53.172;6.598;2024-01-07T12:18:22;5.45;;;3.40;;
51852;SDS011;37894;53.172;6.598;2024-01-07T12:20:57;6.70;;;3.70;;
51852;SDS011;37894;53.172;6.598;2024-01-07T12:23:24;6.30;;;3.22;;
51852;SDS011;37894;53.172;6.598;2024-01-07T12:25:54;5.90;;;2.75;;
51852;SDS011;37894;53.172;6.598;2024-01-07T12:28:31;5.10;;;3.08;;
51852;SDS011;37894;53.172;6.598;2024-01-07T12:30:57;8.13;;;2.95;;
51852;SDS011;37894;53.172;6.598;2024-01-07T12:33:26;4.93;;;2.80;;
51852;SDS011;37894;53.172;6.598;2024-01-07T12:35:52;5.47;;;3.00;;
51852;SDS011;37894;53.172;6.598;2024-01-07T12:38:23;6.30;;;3.20;;
51852;SDS011;37894;53.172;6.598;2024-01-07T12:40:50;7.25;;;3.25;;
51852;SDS011;37894;53.172;6.598;2024-01-07T12:43:16;8.48;;;3.30;;
51852;SDS011;37894;53.172;6.598;2024-01-07T12:45:42;7.60;;;3.75;;
51852;SDS011;37894;53.172;6.598;2024-01-07T12:48:09;7.93;;;4.07;;
51852;SDS011;37894;53.172;6.598;2024-01-07T12:50:35;7.82;;;3.90;;
51852;SDS011;37894;53.172;6.598;2024-01-07T12:53:01;7.88;;;3.60;;
51852;SDS011;37894;53.172;6.598;2024-01-07T12:55:28;7.13;;;2.97;;
51852;SDS011;37894;53.172;6.598;2024-01-07T12:57:54;4.97;;;2.97;;
51852;SDS011;37894;53.172;6.598;2024-01-07T13:00:21;6.70;;;3.63;;
51852;SDS011;37894;53.172;6.598;2024-01-07T13:02:47;7.50;;;3.67;;
51852;SDS011;37894;53.172;6.598;2024-01-07T13:05:13;9.60;;;4.25;;
51852;SDS011;37894;53.172;6.598;2024-01-07T13:07:39;7.60;;;3.40;;
51852;SDS011;37894;53.172;6.598;2024-01-07T13:10:05;7.07;;;3.58;;
51852;SDS011;37894;53.172;6.598;2024-01-07T13:12:31;6.47;;;3.28;;
51852;SDS011;37894;53.172;6.598;2024-01-07T13:14:57;6.53;;;3.33;;
51852;SDS011;37894;53.172;6.598;2024-01-07T13:17:23;8.05;;;3.75;;
51852;SDS011;37894;53.172;6.598;2024-01-07T13:19:49;7.30;;;3.33;;
51852;SDS011;37894;53.172;6.598;2024-01-07T13:22:15;6.43;;;4.10;;
51852;SDS011;37894;53.172;6.598;2024-01-07T13:24:40;7.57;;;3.78;;
51852;SDS011;37894;53.172;6.598;2024-01-07T13:27:07;8.60;;;3.97;;
51852;SDS011;37894;53.172;6.598;2024-01-07T13:29:36;8.52;;;4.03;;
51852;SDS011;37894;53.172;6.598;2024-01-07T13:32:02;7.35;;;3.50;;
51852;SDS011;37894;53.172;6.598;2024-01-07T13:34:28;6.80;;;3.90;;
51852;SDS011;37894;53.172;6.598;2024-01-07T13:36:55;9.65;;;4.47;;
51852;SDS011;37894;53.172;6.598;2024-01-07T13:39:21;8.55;;;3.90;;
51852;SDS011;37894;53.172;6.598;2024-01-07T13:41:47;8.10;;;4.68;;
51852;SDS011;37894;53.172;6.598;2024-01-07T13:44:13;11.63;;;4.53;;
51852;SDS011;37894;53.172;6.598;2024-01-07T13:46:48;16.52;;;5.70;;
51852;SDS011;37894;53.172;6.598;2024-01-07T13:49:14;8.00;;;4.40;;
51852;SDS011;37894;53.172;6.598;2024-01-07T13:51:40;23.23;;;8.05;;
51852;SDS011;37894;53.172;6.598;2024-01-07T13:54:07;14.27;;;4.90;;
51852;SDS011;37894;53.172;6.598;2024-01-07T13:56:35;17.40;;;6.15;;
51852;SDS011;37894;53.172;6.598;2024-01-07T13:59:02;11.63;;;5.15;;
51852;SDS011;37894;53.172;6.598;2024-01-07T14:01:28;9.70;;;4.00;;
51852;SDS011;37894;53.172;6.598;2024-01-07T14:03:54;7.72;;;4.47;;
51852;SDS011;37894;53.172;6.598;2024-01-07T14:06:21;12.50;;;5.35;;
51852;SDS011;37894;53.172;6.598;2024-01-07T14:08:46;7.93;;;4.22;;
51852;SDS011;37894;53.172;6.598;2024-01-07T14:11:12;8.30;;;4.20;;
51852;SDS011;37894;53.172;6.598;2024-01-07T14:13:38;7.57;;;3.42;;
51852;SDS011;37894;53.172;6.598;2024-01-07T14:16:04;8.23;;;3.90;;
51852;SDS011;37894;53.172;6.598;2024-01-07T14:18:30;8.73;;;3.78;;
51852;SDS011;37894;53.172;6.598;2024-01-07T14:20:56;7.60;;;3.65;;
51852;SDS011;37894;53.172;6.598;2024-01-07T14:23:22;6.72;;;3.80;;
51852;SDS011;37894;53.172;6.598;2024-01-07T14:25:48;7.82;;;4.13;;
51852;SDS011;37894;53.172;6.598;2024-01-07T14:28:14;8.13;;;3.60;;
51852;SDS011;37894;53.172;6.598;2024-01-07T14:30:40;6.47;;;3.50;;
51852;SDS011;37894;53.172;6.598;2024-01-07T14:33:06;9.68;;;4.30;;
51852;SDS011;37894;53.172;6.598;2024-01-07T14:35:32;7.90;;;4.20;;
51852;SDS011;37894;53.172;6.598;2024-01-07T14:37:58;5.50;;;3.30;;
51852;SDS011;37894;53.172;6.598;2024-01-07T14:40:25;6.07;;;3.88;;
51852;SDS011;37894;53.172;6.598;2024-01-07T14:42:51;11.80;;;3.58;;
51852;SDS011;37894;53.172;6.598;2024-01-07T14:45:23;7.22;;;3.88;;
51852;SDS011;37894;53.172;6.598;2024-01-07T14:47:50;8.02;;;4.25;;
51852;SDS011;37894;53.172;6.598;2024-01-07T14:50:17;10.55;;;4.28;;
51852;SDS011;37894;53.172;6.598;2024-01-07T14:52:43;7.93;;;3.70;;